sensor_id;sensor_type;location;lat;lon;timestamp;P1;durP1;ratioP1;P2;durP2;ratioP2
7919;SDS011;18778;47.610;9.776;2024-02-23T00:01:56;0.60;;;0.60;;
7919;SDS011;18778;47.610;9.776;2024-02-23T00:04:22;0.67;;;0.67;;
7919;SDS011;18778;47.610;9.776;2024-02-23T00:06:48;0.70;;;0.70;;
7919;SDS011;18778;47.610;9.776;2024-02-23T00:09:14;0.83;;;0.83;;
7919;SDS011;18778;47.610;9.776;2024-02-23T00:11:40;0.90;;;0.90;;
7919;SDS011;18778;47.610;9.776;2024-02-23T00:14:10;0.80;;;0.80;;
7919;SDS011;18778;47.610;9.776;2024-02-23T00:16:39;0.90;;;0.90;;
7919;SDS011;18778;47.610;9.776;2024-02-23T00:19:07;0.80;;;0.80;;
7919;SDS011;18778;47.610;9.776;2024-02-23T00:21:34;0.80;;;0.80;;
7919;SDS011;18778;47.610;9.776;2024-02-23T00:24:00;0.73;;;0.73;;
7919;SDS011;18778;47.610;9.776;2024-02-23T00:26:26;0.70;;;0.70;;
7919;SDS011;18778;47.610;9.776;2024-02-23T00:28:54;0.87;;;0.80;;
7919;SDS011;18778;47.610;9.776;2024-02-23T00:31:20;0.70;;;0.70;;
7919;SDS011;18778;47.610;9.776;2024-02-23T00:33:45;0.70;;;0.70;;
7919;SDS011;18778;47.610;9.776;2024-02-23T00:36:12;0.80;;;0.80;;
7919;SDS011;18778;47.610;9.776;2024-02-23T00:38:37;0.70;;;0.70;;
7919;SDS011;18778;47.610;9.776;2024-02-23T00:41:03;0.70;;;0.70;;
7919;SDS011;18778;47.610;9.776;2024-02-23T00:43:29;0.70;;;0.70;;
7919;SDS011;18778;47.610;9.776;2024-02-23T00:45:56;0.60;;;0.60;;
7919;SDS011;18778;47.610;9.776;2024-02-23T00:48:21;0.70;;;0.70;;
7919;SDS011;18778;47.610;9.776;2024-02-23T00:50:47;0.80;;;0.80;;
7919;SDS011;18778;47.610;9.776;2024-02-23T00:53:13;0.80;;;0.80;;
7919;SDS011;18778;47.610;9.776;2024-02-23T00:55:39;1.10;;;0.70;;
7919;SDS011;18778;47.610;9.776;2024-02-23T00:58:05;0.83;;;0.83;;
7919;SDS011;18778;47.610;9.776;2024-02-23T01:00:32;0.63;;;0.63;;
7919;SDS011;18778;47.610;9.776;2024-02-23T01:02:58;0.80;;;0.80;;
7919;SDS011;18778;47.610;9.776;2024-02-23T01:05:25;0.80;;;0.80;;
7919;SDS011;18778;47.610;9.776;2024-02-23T01:07:51;0.70;;;0.70;;
7919;SDS011;18778;47.610;9.776;2024-02-23T01:10:17;0.73;;;0.73;;
7919;SDS011;18778;47.610;9.776;2024-02-23T01:12:43;1.10;;;0.80;;
7919;SDS011;18778;47.610;9.776;2024-02-23T01:15:09;0.70;;;0.70;;
7919;SDS011;18778;47.610;9.776;2024-02-23T01:17:35;0.70;;;0.70;;
7919;SDS011;18778;47.610;9.776;2024-02-23T01:20:01;0.83;;;0.83;;
7919;SDS011;18778;47.610;9.776;2024-02-23T01:22:27;0.67;;;0.67;;
7919;SDS011;18778;47.610;9.776;2024-02-23T01:24:53;5.07;;;3.50;;
7919;SDS011;18778;47.610;9.776;2024-02-23T01:27:19;0.80;;;0.80;;
7919;SDS011;18778;47.610;9.776;2024-02-23T01:29:45;0.80;;;0.80;;
7919;SDS011;18778;47.610;9.776;2024-02-23T01:32:11;0.80;;;0.80;;
7919;SDS011;18778;47.610;9.776;2024-02-23T01:34:37;0.90;;;0.90;;
7919;SDS011;18778;47.610;9.776;2024-02-23T01:37:03;0.80;;;0.80;;
7919;SDS011;18778;47.610;9.776;2024-02-23T01:39:29;0.80;;;0.80;;
7919;SDS011;18778;47.610;9.776;2024-02-23T01:41:55;0.80;;;0.80;;
7919;SDS011;18778;47.610;9.776;2024-02-23T01:44:21;0.90;;;0.90;;
7919;SDS011;18778;47.610;9.776;2024-02-23T01:46:47;1.70;;;0.83;;
7919;SDS011;18778;47.610;9.776;2024-02-23T01:49:13;0.73;;;0.73;;
7919;SDS011;18778;47.610;9.776;2024-02-23T01:51:39;0.80;;;0.80;;
7919;SDS011;18778;47.610;9.776;2024-02-23T01:54:05;0.77;;;0.77;;
7919;SDS011;18778;47.610;9.776;2024-02-23T01:56:32;0.73;;;0.73;;
7919;SDS011;18778;47.610;9.776;2024-02-23T01:59:01;0.90;;;0.90;;
7919;SDS011;18778;47.610;9.776;2024-02-23T02:01:28;0.90;;;0.90;;
7919;SDS011;18778;47.610;9.776;2024-02-23T02:03:54;0.90;;;0.90;;
7919;SDS011;18778;47.610;9.776;2024-02-23T02:06:21;0.70;;;0.70;;
7919;SDS011;18778;47.610;9.776;2024-02-23T02:08:47;1.27;;;0.90;;
7919;SDS011;18778;47.610;9.776;2024-02-23T02:11:13;1.40;;;0.90;;
7919;SDS011;18778;47.610;9.776;2024-02-23T02:13:40;0.80;;;0.80;;
7919;SDS011;18778;47.610;9.776;2024-02-23T02:16:06;0.80;;;0.80;;
7919;SDS011;18778;47.610;9.776;2024-02-23T02:18:32;0.73;;;0.73;;
7919;SDS011;18778;47.610;9.776;2024-02-23T02:20:58;0.80;;;0.80;;
7919;SDS011;18778;47.610;9.776;2024-02-23T02:23:24;0.77;;;0.77;;
7919;SDS011;18778;47.610;9.776;2024-02-23T02:25:54;0.97;;;0.83;;
7919;SDS011;18778;47.610;9.776;2024-02-23T02:28:25;0.80;;;0.80;;
7919;SDS011;18778;47.610;9.776;2024-02-23T02:30:51;1.00;;;1.00;;
7919;SDS011;18778;47.610;9.776;2024-02-23T02:33:18;0.90;;;0.90;;
7919;SDS011;18778;47.610;9.776;2024-02-23T02:35:44;0.90;;;0.90;;
7919;SDS011;18778;47.610;9.776;2024-02-23T02:38:10;0.70;;;0.70;;
7919;SDS011;18778;47.610;9.776;2024-02-23T02:40:36;1.00;;;1.00;;
7919;SDS011;18778;47.610;9.776;2024-02-23T02:43:02;0.93;;;0.83;;
7919;SDS011;18778;47.610;9.776;2024-02-23T02:45:28;1.30;;;0.90;;
7919;SDS011;18778;47.610;9.776;2024-02-23T02:47:54;0.90;;;0.90;;
7919;SDS011;18778;47.610;9.776;2024-02-23T02:50:21;1.00;;;1.00;;
7919;SDS011;18778;47.610;9.776;2024-02-23T02:52:47;0.77;;;0.73;;
7919;SDS011;18778;47.610;9.776;2024-02-23T02:55:13;1.17;;;1.17;;
7919;SDS011;18778;47.610;9.776;2024-02-23T02:57:39;1.07;;;0.70;;
7919;SDS011;18778;47.610;9.776;2024-02-23T03:00:05;1.20;;;1.10;;
7919;SDS011;18778;47.610;9.776;2024-02-23T03:02:31;1.13;;;1.00;;
7919;SDS011;18778;47.610;9.776;2024-02-23T03:04:57;1.07;;;1.07;;
7919;SDS011;18778;47.610;9.776;2024-02-23T03:07:23;2.00;;;1.03;;
7919;SDS011;18778;47.610;9.776;2024-02-23T03:09:49;3.30;;;1.30;;
7919;SDS011;18778;47.610;9.776;2024-02-23T03:12:16;1.27;;;1.27;;
7919;SDS011;18778;47.610;9.776;2024-02-23T03:14:42;0.80;;;0.80;;
7919;SDS011;18778;47.610;9.776;2024-02-23T03:17:08;0.90;;;0.90;;
7919;SDS011;18778;47.610;9.776;2024-02-23T03:19:34;2.63;;;1.20;;
7919;SDS011;18778;47.610;9.776;2024-02-23T03:22:00;1.60;;;1.37;;
7919;SDS011;18778;47.610;9.776;2024-02-23T03:24:26;1.70;;;1.03;;
7919;SDS011;18778;47.610;9.776;2024-02-23T03:26:52;1.23;;;1.13;;
7919;SDS011;18778;47.610;9.776;2024-02-23T03:29:18;1.60;;;1.00;;
7919;SDS011;18778;47.610;9.776;2024-02-23T03:31:45;2.83;;;1.43;;
7919;SDS011;18778;47.610;9.776;2024-02-23T03:34:11;1.07;;;1.00;;
7919;SDS011;18778;47.610;9.776;2024-02-23T03:36:38;1.23;;;1.00;;
7919;SDS011;18778;47.610;9.776;2024-02-23T03:39:04;1.10;;;1.00;;
7919;SDS011;18778;47.610;9.776;2024-02-23T03:41:30;2.57;;;1.20;;
7919;SDS011;18778;47.610;9.776;2024-02-23T03:43:56;1.23;;;1.23;;
7919;SDS011;18778;47.610;9.776;2024-02-23T03:46:23;1.40;;;1.30;;
7919;SDS011;18778;47.610;9.776;2024-02-23T03:48:49;1.33;;;1.33;;
7919;SDS011;18778;47.610;9.776;2024-02-23T03:51:16;1.00;;;1.00;;
7919;SDS011;18778;47.610;9.776;2024-02-23T03:53:42;1.80;;;1.27;;
7919;SDS011;18778;47.610;9.776;2024-02-23T03:56:09;3.20;;;1.00;;
7919;SDS011;18778;47.610;9.776;2024-02-23T03:58:35;1.97;;;1.27;;
7919;SDS011;18778;47.610;9.776;2024-02-23T04:01:01;1.20;;;1.10;;
7919;SDS011;18778;47.610;9.776;2024-02-23T04:03:27;1.30;;;1.20;;
7919;SDS011;18778;47.610;9.776;2024-02-23T04:05:53;1.50;;;1.30;;
7919;SDS011;18778;47.610;9.776;2024-02-23T04:08:18;2.13;;;1.50;;
7919;SDS011;18778;47.610;9.776;2024-02-23T04:10:44;3.63;;;1.40;;
7919;SDS011;18778;47.610;9.776;2024-02-23T04:13:10;1.47;;;1.10;;
7919;SDS011;18778;47.610;9.776;2024-02-23T04:15:39;1.20;;;1.20;;
7919;SDS011;18778;47.610;9.776;2024-02-23T04:18:05;1.47;;;1.20;;
7919;SDS011;18778;47.610;9.776;2024-02-23T04:20:31;1.40;;;1.30;;
7919;SDS011;18778;47.610;9.776;2024-02-23T04:22:57;1.00;;;1.00;;
7919;SDS011;18778;47.610;9.776;2024-02-23T04:25:24;1.30;;;1.20;;
7919;SDS011;18778;47.610;9.776;2024-02-23T04:27:49;1.33;;;1.17;;
7919;SDS011;18778;47.610;9.776;2024-02-23T04:30:15;1.80;;;1.10;;
7919;SDS011;18778;47.610;9.776;2024-02-23T04:32:41;1.10;;;1.10;;
7919;SDS011;18778;47.610;9.776;2024-02-23T04:35:07;1.17;;;1.07;;
7919;SDS011;18778;47.610;9.776;2024-02-23T04:37:33;1.30;;;1.30;;
7919;SDS011;18778;47.610;9.776;2024-02-23T04:39:59;1.63;;;1.57;;
7919;SDS011;18778;47.610;9.776;2024-02-23T04:42:25;4.10;;;1.43;;
7919;SDS011;18778;47.610;9.776;2024-02-23T04:44:52;2.03;;;1.20;;
7919;SDS011;18778;47.610;9.776;2024-02-23T04:47:20;1.27;;;1.27;;
7919;SDS011;18778;47.610;9.776;2024-02-23T04:49:46;1.30;;;1.20;;
7919;SDS011;18778;47.610;9.776;2024-02-23T04:52:12;1.63;;;1.40;;
7919;SDS011;18778;47.610;9.776;2024-02-23T04:54:37;3.30;;;1.50;;
7919;SDS011;18778;47.610;9.776;2024-02-23T04:57:03;1.73;;;1.47;;
7919;SDS011;18778;47.610;9.776;2024-02-23T04:59:32;1.20;;;1.17;;
7919;SDS011;18778;47.610;9.776;2024-02-23T05:01:59;3.40;;;1.40;;
7919;SDS011;18778;47.610;9.776;2024-02-23T05:04:25;2.13;;;1.27;;
7919;SDS011;18778;47.610;9.776;2024-02-23T05:06:51;3.13;;;1.60;;
7919;SDS011;18778;47.610;9.776;2024-02-23T05:09:17;1.40;;;1.40;;
7919;SDS011;18778;47.610;9.776;2024-02-23T05:11:43;1.30;;;1.27;;
7919;SDS011;18778;47.610;9.776;2024-02-23T05:14:10;1.10;;;1.00;;
7919;SDS011;18778;47.610;9.776;2024-02-23T05:16:36;1.13;;;1.13;;
7919;SDS011;18778;47.610;9.776;2024-02-23T05:19:02;1.27;;;1.13;;
7919;SDS011;18778;47.610;9.776;2024-02-23T05:21:28;1.20;;;1.20;;
7919;SDS011;18778;47.610;9.776;2024-02-23T05:23:54;1.50;;;1.40;;
7919;SDS011;18778;47.610;9.776;2024-02-23T05:26:20;1.50;;;1.40;;
7919;SDS011;18778;47.610;9.776;2024-02-23T05:28:46;4.00;;;1.63;;
7919;SDS011;18778;47.610;9.776;2024-02-23T05:31:12;1.30;;;1.30;;
7919;SDS011;18778;47.610;9.776;2024-02-23T05:33:38;2.07;;;1.57;;
7919;SDS011;18778;47.610;9.776;2024-02-23T05:36:04;1.17;;;1.07;;
7919;SDS011;18778;47.610;9.776;2024-02-23T05:38:30;1.10;;;1.03;;
7919;SDS011;18778;47.610;9.776;2024-02-23T05:40:56;1.20;;;1.10;;
7919;SDS011;18778;47.610;9.776;2024-02-23T05:43:22;2.50;;;1.40;;
7919;SDS011;18778;47.610;9.776;2024-02-23T05:45:48;1.80;;;1.70;;
7919;SDS011;18778;47.610;9.776;2024-02-23T05:48:14;2.67;;;1.50;;
7919;SDS011;18778;47.610;9.776;2024-02-23T05:50:40;1.70;;;1.60;;
7919;SDS011;18778;47.610;9.776;2024-02-23T05:53:06;1.50;;;1.50;;
7919;SDS011;18778;47.610;9.776;2024-02-23T05:55:32;1.67;;;1.47;;
7919;SDS011;18778;47.610;9.776;2024-02-23T05:57:58;2.63;;;1.37;;
7919;SDS011;18778;47.610;9.776;2024-02-23T06:00:24;1.83;;;1.67;;
7919;SDS011;18778;47.610;9.776;2024-02-23T06:02:50;1.97;;;1.80;;
7919;SDS011;18778;47.610;9.776;2024-02-23T06:05:16;2.73;;;1.93;;
7919;SDS011;18778;47.610;9.776;2024-02-23T06:07:42;4.10;;;2.17;;
7919;SDS011;18778;47.610;9.776;2024-02-23T06:10:08;2.70;;;2.30;;
7919;SDS011;18778;47.610;9.776;2024-02-23T06:12:34;2.87;;;1.90;;
7919;SDS011;18778;47.610;9.776;2024-02-23T06:14:59;2.23;;;2.13;;
7919;SDS011;18778;47.610;9.776;2024-02-23T06:17:25;2.57;;;1.70;;
7919;SDS011;18778;47.610;9.776;2024-02-23T06:19:52;1.67;;;1.57;;
7919;SDS011;18778;47.610;9.776;2024-02-23T06:22:18;6.77;;;1.87;;
7919;SDS011;18778;47.610;9.776;2024-02-23T06:24:47;1.60;;;1.50;;
7919;SDS011;18778;47.610;9.776;2024-02-23T06:27:13;2.43;;;1.73;;
7919;SDS011;18778;47.610;9.776;2024-02-23T06:29:38;1.80;;;1.70;;
7919;SDS011;18778;47.610;9.776;2024-02-23T06:32:04;1.90;;;1.80;;
7919;SDS011;18778;47.610;9.776;2024-02-23T06:34:30;1.80;;;1.70;;
7919;SDS011;18778;47.610;9.776;2024-02-23T06:36:57;2.23;;;1.90;;
7919;SDS011;18778;47.610;9.776;2024-02-23T06:39:22;2.20;;;2.00;;
7919;SDS011;18778;47.610;9.776;2024-02-23T06:41:48;1.57;;;1.47;;
7919;SDS011;18778;47.610;9.776;2024-02-23T06:44:14;2.03;;;1.83;;
7919;SDS011;18778;47.610;9.776;2024-02-23T06:46:39;1.70;;;1.60;;
7919;SDS011;18778;47.610;9.776;2024-02-23T06:49:06;4.80;;;1.80;;
7919;SDS011;18778;47.610;9.776;2024-02-23T06:51:32;1.70;;;1.60;;
7919;SDS011;18778;47.610;9.776;2024-02-23T06:53:58;1.63;;;1.57;;
7919;SDS011;18778;47.610;9.776;2024-02-23T06:56:23;2.70;;;1.37;;
7919;SDS011;18778;47.610;9.776;2024-02-23T06:58:49;1.97;;;1.87;;
7919;SDS011;18778;47.610;9.776;2024-02-23T07:01:15;1.60;;;1.50;;
7919;SDS011;18778;47.610;9.776;2024-02-23T07:03:41;2.37;;;1.50;;
7919;SDS011;18778;47.610;9.776;2024-02-23T07:06:09;5.83;;;3.20;;
7919;SDS011;18778;47.610;9.776;2024-02-23T07:08:37;3.53;;;2.77;;
7919;SDS011;18778;47.610;9.776;2024-02-23T07:11:03;1.47;;;1.37;;
7919;SDS011;18778;47.610;9.776;2024-02-23T07:13:29;13.23;;;7.03;;
7919;SDS011;18778;47.610;9.776;2024-02-23T07:15:56;13.47;;;7.73;;
7919;SDS011;18778;47.610;9.776;2024-02-23T07:18:23;16.50;;;8.37;;
7919;SDS011;18778;47.610;9.776;2024-02-23T07:20:49;7.77;;;4.73;;
7919;SDS011;18778;47.610;9.776;2024-02-23T07:23:15;2.50;;;2.30;;
7919;SDS011;18778;47.610;9.776;2024-02-23T07:25:42;1.80;;;1.70;;
7919;SDS011;18778;47.610;9.776;2024-02-23T07:28:08;1.57;;;1.40;;
7919;SDS011;18778;47.610;9.776;2024-02-23T07:30:34;2.40;;;1.40;;
7919;SDS011;18778;47.610;9.776;2024-02-23T07:33:02;2.23;;;1.50;;
7919;SDS011;18778;47.610;9.776;2024-02-23T07:35:28;1.70;;;1.60;;
7919;SDS011;18778;47.610;9.776;2024-02-23T07:37:55;2.90;;;2.70;;
7919;SDS011;18778;47.610;9.776;2024-02-23T07:40:20;3.03;;;2.73;;
7919;SDS011;18778;47.610;9.776;2024-02-23T07:42:46;2.60;;;2.23;;
7919;SDS011;18778;47.610;9.776;2024-02-23T07:45:12;2.03;;;1.93;;
7919;SDS011;18778;47.610;9.776;2024-02-23T07:47:38;2.10;;;2.00;;
7919;SDS011;18778;47.610;9.776;2024-02-23T07:50:04;1.80;;;1.70;;
7919;SDS011;18778;47.610;9.776;2024-02-23T07:52:30;1.40;;;1.40;;
7919;SDS011;18778;47.610;9.776;2024-02-23T07:54:56;1.87;;;1.77;;
7919;SDS011;18778;47.610;9.776;2024-02-23T07:57:22;1.83;;;1.73;;
7919;SDS011;18778;47.610;9.776;2024-02-23T07:59:47;3.00;;;2.00;;
7919;SDS011;18778;47.610;9.776;2024-02-23T08:02:14;1.73;;;1.63;;
7919;SDS011;18778;47.610;9.776;2024-02-23T08:04:40;2.47;;;1.90;;
7919;SDS011;18778;47.610;9.776;2024-02-23T08:07:07;2.07;;;1.83;;
7919;SDS011;18778;47.610;9.776;2024-02-23T08:09:33;1.67;;;1.57;;
7919;SDS011;18778;47.610;9.776;2024-02-23T08:11:58;1.80;;;1.70;;
7919;SDS011;18778;47.610;9.776;2024-02-23T08:14:24;2.20;;;2.10;;
7919;SDS011;18778;47.610;9.776;2024-02-23T08:16:50;2.53;;;1.90;;
7919;SDS011;18778;47.610;9.776;2024-02-23T08:19:15;2.57;;;1.43;;
7919;SDS011;18778;47.610;9.776;2024-02-23T08:21:41;1.47;;;1.40;;
7919;SDS011;18778;47.610;9.776;2024-02-23T08:24:08;1.43;;;1.43;;
7919;SDS011;18778;47.610;9.776;2024-02-23T08:26:34;2.50;;;1.70;;
7919;SDS011;18778;47.610;9.776;2024-02-23T08:28:59;1.70;;;1.60;;
7919;SDS011;18778;47.610;9.776;2024-02-23T08:31:25;2.03;;;1.93;;
7919;SDS011;18778;47.610;9.776;2024-02-23T08:33:51;1.80;;;1.70;;
7919;SDS011;18778;47.610;9.776;2024-02-23T08:36:16;2.50;;;2.30;;
7919;SDS011;18778;47.610;9.776;2024-02-23T08:38:42;2.03;;;1.40;;
7919;SDS011;18778;47.610;9.776;2024-02-23T08:41:07;1.67;;;1.50;;
7919;SDS011;18778;47.610;9.776;2024-02-23T08:43:33;1.20;;;1.20;;
7919;SDS011;18778;47.610;9.776;2024-02-23T08:45:59;1.20;;;1.20;;
7919;SDS011;18778;47.610;9.776;2024-02-23T08:48:24;1.40;;;1.30;;
7919;SDS011;18778;47.610;9.776;2024-02-23T08:50:50;3.27;;;1.30;;
7919;SDS011;18778;47.610;9.776;2024-02-23T08:53:16;1.40;;;1.30;;
7919;SDS011;18778;47.610;9.776;2024-02-23T08:55:42;1.53;;;1.33;;
7919;SDS011;18778;47.610;9.776;2024-02-23T08:58:08;1.80;;;1.70;;
7919;SDS011;18778;47.610;9.776;2024-02-23T09:00:34;2.33;;;2.10;;
7919;SDS011;18778;47.610;9.776;2024-02-23T09:03:02;4.13;;;2.50;;
7919;SDS011;18778;47.610;9.776;2024-02-23T09:05:27;1.63;;;1.53;;
7919;SDS011;18778;47.610;9.776;2024-02-23T09:07:53;1.60;;;1.50;;
7919;SDS011;18778;47.610;9.776;2024-02-23T09:10:19;1.50;;;1.40;;
7919;SDS011;18778;47.610;9.776;2024-02-23T09:12:44;1.33;;;1.33;;
7919;SDS011;18778;47.610;9.776;2024-02-23T09:15:10;1.77;;;1.47;;
7919;SDS011;18778;47.610;9.776;2024-02-23T09:17:36;1.80;;;1.70;;
7919;SDS011;18778;47.610;9.776;2024-02-23T09:20:01;1.60;;;1.33;;
7919;SDS011;18778;47.610;9.776;2024-02-23T09:22:27;4.07;;;1.70;;
7919;SDS011;18778;47.610;9.776;2024-02-23T09:24:53;2.07;;;1.50;;
7919;SDS011;18778;47.610;9.776;2024-02-23T09:27:22;1.50;;;1.40;;
7919;SDS011;18778;47.610;9.776;2024-02-23T09:29:47;1.40;;;1.30;;
7919;SDS011;18778;47.610;9.776;2024-02-23T09:32:13;1.73;;;1.63;;
7919;SDS011;18778;47.610;9.776;2024-02-23T09:34:38;1.80;;;1.70;;
7919;SDS011;18778;47.610;9.776;2024-02-23T09:37:08;2.47;;;1.47;;
7919;SDS011;18778;47.610;9.776;2024-02-23T09:39:34;1.83;;;1.60;;
7919;SDS011;18778;47.610;9.776;2024-02-23T09:42:00;5.13;;;3.10;;
7919;SDS011;18778;47.610;9.776;2024-02-23T09:44:34;1.60;;;1.50;;
7919;SDS011;18778;47.610;9.776;2024-02-23T09:47:00;1.50;;;1.40;;
7919;SDS011;18778;47.610;9.776;2024-02-23T09:49:39;2.90;;;1.70;;
7919;SDS011;18778;47.610;9.776;2024-02-23T09:52:09;2.40;;;1.50;;
7919;SDS011;18778;47.610;9.776;2024-02-23T09:54:36;2.43;;;1.50;;
7919;SDS011;18778;47.610;9.776;2024-02-23T09:57:02;1.80;;;1.70;;
7919;SDS011;18778;47.610;9.776;2024-02-23T09:59:34;2.33;;;1.53;;
7919;SDS011;18778;47.610;9.776;2024-02-23T10:02:01;3.10;;;1.67;;
7919;SDS011;18778;47.610;9.776;2024-02-23T10:04:29;2.90;;;2.00;;
7919;SDS011;18778;47.610;9.776;2024-02-23T10:06:56;2.10;;;1.90;;
7919;SDS011;18778;47.610;9.776;2024-02-23T10:09:21;4.40;;;2.17;;
7919;SDS011;18778;47.610;9.776;2024-02-23T10:11:53;2.03;;;1.83;;
7919;SDS011;18778;47.610;9.776;2024-02-23T10:14:20;2.17;;;1.83;;
7919;SDS011;18778;47.610;9.776;2024-02-23T10:16:46;3.13;;;1.53;;
7919;SDS011;18778;47.610;9.776;2024-02-23T10:19:12;2.00;;;1.50;;
7919;SDS011;18778;47.610;9.776;2024-02-23T10:21:37;1.50;;;1.40;;
7919;SDS011;18778;47.610;9.776;2024-02-23T10:24:04;1.60;;;1.50;;
7919;SDS011;18778;47.610;9.776;2024-02-23T10:26:30;1.20;;;1.10;;
7919;SDS011;18778;47.610;9.776;2024-02-23T10:28:57;2.83;;;1.43;;
7919;SDS011;18778;47.610;9.776;2024-02-23T10:31:24;1.97;;;1.30;;
7919;SDS011;18778;47.610;9.776;2024-02-23T10:33:50;2.07;;;1.90;;
7919;SDS011;18778;47.610;9.776;2024-02-23T10:36:17;1.97;;;1.77;;
7919;SDS011;18778;47.610;9.776;2024-02-23T10:38:45;1.47;;;1.40;;
7919;SDS011;18778;47.610;9.776;2024-02-23T10:41:14;3.90;;;1.40;;
7919;SDS011;18778;47.610;9.776;2024-02-23T10:43:46;1.43;;;1.33;;
7919;SDS011;18778;47.610;9.776;2024-02-23T10:46:13;2.00;;;1.50;;
7919;SDS011;18778;47.610;9.776;2024-02-23T10:48:43;2.70;;;1.40;;
7919;SDS011;18778;47.610;9.776;2024-02-23T10:51:10;1.90;;;1.57;;
7919;SDS011;18778;47.610;9.776;2024-02-23T10:53:39;3.97;;;1.67;;
7919;SDS011;18778;47.610;9.776;2024-02-23T10:56:05;2.13;;;1.60;;
7919;SDS011;18778;47.610;9.776;2024-02-23T10:58:32;3.33;;;1.70;;
7919;SDS011;18778;47.610;9.776;2024-02-23T11:01:02;6.93;;;2.37;;
7919;SDS011;18778;47.610;9.776;2024-02-23T11:03:30;2.03;;;1.70;;
7919;SDS011;18778;47.610;9.776;2024-02-23T11:05:58;1.87;;;1.67;;
7919;SDS011;18778;47.610;9.776;2024-02-23T11:08:27;2.93;;;1.77;;
7919;SDS011;18778;47.610;9.776;2024-02-23T11:10:53;2.37;;;1.90;;
7919;SDS011;18778;47.610;9.776;2024-02-23T11:13:29;6.33;;;2.30;;
7919;SDS011;18778;47.610;9.776;2024-02-23T11:16:01;5.60;;;2.00;;
7919;SDS011;18778;47.610;9.776;2024-02-23T11:18:29;2.03;;;1.87;;
7919;SDS011;18778;47.610;9.776;2024-02-23T11:21:01;5.77;;;3.60;;
7919;SDS011;18778;47.610;9.776;2024-02-23T11:23:44;3.13;;;2.30;;
7919;SDS011;18778;47.610;9.776;2024-02-23T11:26:13;3.23;;;1.80;;
7919;SDS011;18778;47.610;9.776;2024-02-23T11:31:15;2.90;;;1.87;;
7919;SDS011;18778;47.610;9.776;2024-02-23T11:33:51;2.90;;;1.60;;
7919;SDS011;18778;47.610;9.776;2024-02-23T11:38:53;3.13;;;1.77;;
7919;SDS011;18778;47.610;9.776;2024-02-23T11:41:21;1.70;;;1.60;;
7919;SDS011;18778;47.610;9.776;2024-02-23T11:43:48;1.60;;;1.50;;
7919;SDS011;18778;47.610;9.776;2024-02-23T11:46:15;1.47;;;1.40;;
7919;SDS011;18778;47.610;9.776;2024-02-23T11:48:41;1.63;;;1.40;;
7919;SDS011;18778;47.610;9.776;2024-02-23T11:51:08;1.90;;;1.70;;
7919;SDS011;18778;47.610;9.776;2024-02-23T11:53:36;2.63;;;1.80;;
7919;SDS011;18778;47.610;9.776;2024-02-23T11:56:03;1.93;;;1.57;;
7919;SDS011;18778;47.610;9.776;2024-02-23T11:58:33;1.87;;;1.70;;
7919;SDS011;18778;47.610;9.776;2024-02-23T12:00:59;2.07;;;1.67;;
7919;SDS011;18778;47.610;9.776;2024-02-23T12:03:27;2.63;;;1.60;;
7919;SDS011;18778;47.610;9.776;2024-02-23T12:05:53;1.90;;;1.40;;
7919;SDS011;18778;47.610;9.776;2024-02-23T12:08:19;4.27;;;1.80;;
7919;SDS011;18778;47.610;9.776;2024-02-23T12:10:45;5.30;;;1.83;;
7919;SDS011;18778;47.610;9.776;2024-02-23T12:13:12;2.07;;;1.37;;
7919;SDS011;18778;47.610;9.776;2024-02-23T12:15:38;4.87;;;1.40;;
7919;SDS011;18778;47.610;9.776;2024-02-23T12:18:04;2.27;;;1.50;;
7919;SDS011;18778;47.610;9.776;2024-02-23T12:20:33;1.30;;;1.27;;
7919;SDS011;18778;47.610;9.776;2024-02-23T12:23:00;2.03;;;1.20;;
7919;SDS011;18778;47.610;9.776;2024-02-23T12:25:26;1.97;;;1.70;;
7919;SDS011;18778;47.610;9.776;2024-02-23T12:27:55;2.00;;;1.20;;
7919;SDS011;18778;47.610;9.776;2024-02-23T12:30:25;1.37;;;1.27;;
7919;SDS011;18778;47.610;9.776;2024-02-23T12:32:56;1.47;;;1.37;;
7919;SDS011;18778;47.610;9.776;2024-02-23T12:35:32;2.67;;;1.27;;
7919;SDS011;18778;47.610;9.776;2024-02-23T12:38:00;3.37;;;2.00;;
7919;SDS011;18778;47.610;9.776;2024-02-23T12:40:26;3.03;;;1.60;;
7919;SDS011;18778;47.610;9.776;2024-02-23T12:42:52;3.03;;;1.47;;
7919;SDS011;18778;47.610;9.776;2024-02-23T12:45:18;3.03;;;1.40;;
7919;SDS011;18778;47.610;9.776;2024-02-23T12:47:44;2.43;;;2.23;;
7919;SDS011;18778;47.610;9.776;2024-02-23T12:50:09;5.93;;;1.60;;
7919;SDS011;18778;47.610;9.776;2024-02-23T12:52:36;3.83;;;1.50;;
7919;SDS011;18778;47.610;9.776;2024-02-23T12:55:02;2.13;;;1.70;;
7919;SDS011;18778;47.610;9.776;2024-02-23T12:57:27;3.17;;;1.50;;
7919;SDS011;18778;47.610;9.776;2024-02-23T12:59:53;3.37;;;1.77;;
7919;SDS011;18778;47.610;9.776;2024-02-23T13:02:19;2.03;;;1.40;;
7919;SDS011;18778;47.610;9.776;2024-02-23T13:04:45;2.73;;;1.77;;
7919;SDS011;18778;47.610;9.776;2024-02-23T13:07:14;2.03;;;1.30;;
7919;SDS011;18778;47.610;9.776;2024-02-23T13:09:41;3.90;;;1.63;;
7919;SDS011;18778;47.610;9.776;2024-02-23T13:12:07;2.53;;;1.43;;
7919;SDS011;18778;47.610;9.776;2024-02-23T13:14:33;1.97;;;1.63;;
7919;SDS011;18778;47.610;9.776;2024-02-23T13:16:58;2.13;;;1.77;;
7919;SDS011;18778;47.610;9.776;2024-02-23T13:19:24;3.90;;;2.13;;
7919;SDS011;18778;47.610;9.776;2024-02-23T13:21:49;3.60;;;1.90;;
7919;SDS011;18778;47.610;9.776;2024-02-23T13:24:15;2.10;;;1.93;;
7919;SDS011;18778;47.610;9.776;2024-02-23T13:26:41;2.40;;;2.20;;
7919;SDS011;18778;47.610;9.776;2024-02-23T13:29:07;5.53;;;2.00;;
7919;SDS011;18778;47.610;9.776;2024-02-23T13:31:32;3.40;;;2.10;;
7919;SDS011;18778;47.610;9.776;2024-02-23T13:33:58;2.60;;;2.10;;
7919;SDS011;18778;47.610;9.776;2024-02-23T13:36:23;2.23;;;2.03;;
7919;SDS011;18778;47.610;9.776;2024-02-23T13:38:49;4.83;;;2.23;;
7919;SDS011;18778;47.610;9.776;2024-02-23T13:41:16;9.00;;;2.40;;
7919;SDS011;18778;47.610;9.776;2024-02-23T13:43:42;1.97;;;1.87;;
7919;SDS011;18778;47.610;9.776;2024-02-23T13:46:07;2.43;;;2.10;;
7919;SDS011;18778;47.610;9.776;2024-02-23T13:48:33;2.07;;;1.87;;
7919;SDS011;18778;47.610;9.776;2024-02-23T13:50:58;6.67;;;3.87;;
7919;SDS011;18778;47.610;9.776;2024-02-23T13:53:28;2.47;;;2.10;;
7919;SDS011;18778;47.610;9.776;2024-02-23T13:55:57;2.47;;;2.30;;
7919;SDS011;18778;47.610;9.776;2024-02-23T13:58:23;3.53;;;2.10;;
7919;SDS011;18778;47.610;9.776;2024-02-23T14:00:49;3.10;;;1.97;;
7919;SDS011;18778;47.610;9.776;2024-02-23T14:03:18;3.33;;;1.93;;
7919;SDS011;18778;47.610;9.776;2024-02-23T14:05:44;2.17;;;1.93;;
7919;SDS011;18778;47.610;9.776;2024-02-23T14:08:11;2.13;;;1.90;;
7919;SDS011;18778;47.610;9.776;2024-02-23T14:10:36;2.20;;;2.00;;
7919;SDS011;18778;47.610;9.776;2024-02-23T14:13:02;3.20;;;2.40;;
7919;SDS011;18778;47.610;9.776;2024-02-23T14:15:28;5.43;;;2.83;;
7919;SDS011;18778;47.610;9.776;2024-02-23T14:17:54;2.93;;;2.40;;
7919;SDS011;18778;47.610;9.776;2024-02-23T14:20:19;2.43;;;2.27;;
7919;SDS011;18778;47.610;9.776;2024-02-23T14:22:45;2.40;;;2.20;;
7919;SDS011;18778;47.610;9.776;2024-02-23T14:25:11;3.47;;;2.50;;
7919;SDS011;18778;47.610;9.776;2024-02-23T14:27:36;3.73;;;2.60;;
7919;SDS011;18778;47.610;9.776;2024-02-23T14:30:02;2.73;;;2.40;;
7919;SDS011;18778;47.610;9.776;2024-02-23T14:32:28;3.47;;;2.53;;
7919;SDS011;18778;47.610;9.776;2024-02-23T14:34:54;3.20;;;2.90;;
7919;SDS011;18778;47.610;9.776;2024-02-23T14:37:20;5.03;;;3.10;;
7919;SDS011;18778;47.610;9.776;2024-02-23T14:39:46;3.33;;;2.67;;
7919;SDS011;18778;47.610;9.776;2024-02-23T14:42:11;2.90;;;2.60;;
7919;SDS011;18778;47.610;9.776;2024-02-23T14:44:37;4.37;;;2.50;;
7919;SDS011;18778;47.610;9.776;2024-02-23T14:47:05;3.00;;;2.70;;
7919;SDS011;18778;47.610;9.776;2024-02-23T14:49:31;4.50;;;2.70;;
7919;SDS011;18778;47.610;9.776;2024-02-23T14:51:57;3.03;;;2.80;;
7919;SDS011;18778;47.610;9.776;2024-02-23T14:54:23;2.63;;;2.43;;
7919;SDS011;18778;47.610;9.776;2024-02-23T14:56:49;2.77;;;2.57;;
7919;SDS011;18778;47.610;9.776;2024-02-23T14:59:15;4.17;;;2.53;;
7919;SDS011;18778;47.610;9.776;2024-02-23T15:01:41;2.73;;;2.50;;